Time;durP1;ratioP1;P1;durP2;ratioP2;P2;SDS_P1;SDS_P2;PMS_P1;PMS_P2;Temp;Humidity;BMP_temperature;BMP_pressure;BME280_temperature;BME280_humidity;BME280_pressure;Samples;Min_cycle;Max_cycle;Signal;HPM_P1;HPM_P2
2021/10/25 00:00:52;;;;;;;28.00;15.50;;;;;;;5.20;65.97;101613.31;6279157;28;20132;-78
2021/10/25 00:03:53;;;;;;;26.30;14.23;;;;;;;5.08;66.50;101612.63;6295863;28;20491;-78
2021/10/25 00:06:54;;;;;;;29.27;15.27;;;;;;;4.99;67.14;101605.84;6296807;28;20124;-78
2021/10/25 00:09:55;;;;;;;28.38;14.90;;;;;;;5.10;66.46;101600.53;6295567;28;20105;-78
2021/10/25 00:12:56;;;;;;;25.50;13.32;;;;;;;5.01;67.03;101617.88;6294805;28;20124;-75
2021/10/25 00:15:56;;;;;;;24.65;12.40;;;;;;;5.03;66.56;101613.53;6296240;28;20124;-74
2021/10/25 00:18:57;;;;;;;21.63;11.80;;;;;;;5.09;65.12;101609.19;6278250;28;20071;-74
2021/10/25 00:21:58;;;;;;;22.08;11.77;;;;;;;5.05;65.48;101606.63;6294959;28;20048;-75
2021/10/25 00:24:59;;;;;;;18.67;11.13;;;;;;;5.17;65.21;101612.53;6296055;28;20037;-74
2021/10/25 00:27:59;;;;;;;20.83;10.45;;;;;;;4.98;66.42;101604.13;6296083;28;20994;-74
2021/10/25 00:31:00;;;;;;;18.75;10.55;;;;;;;5.12;65.97;101603.94;6278185;28;20044;-75
2021/10/25 00:34:01;;;;;;;22.40;10.25;;;;;;;5.03;66.17;101599.75;6294809;28;20453;-75
2021/10/25 00:37:03;;;;;;;21.83;11.40;;;;;;;5.02;66.30;101598.91;6296019;28;20437;-74
2021/10/25 00:40:08;;;;;;;18.48;9.93;;;;;;;5.02;66.58;101593.75;6294653;28;20234;-75
2021/10/25 00:43:09;;;;;;;21.95;10.50;;;;;;;5.00;65.53;101599.78;6277971;28;20056;-74
2021/10/25 00:46:10;;;;;;;22.27;10.77;;;;;;;4.94;66.48;101605.03;6295685;28;20036;-74
2021/10/25 00:49:11;;;;;;;20.42;10.57;;;;;;;4.90;66.41;101609.41;6300624;28;20059;-74
2021/10/25 00:52:12;;;;;;;18.90;10.07;;;;;;;4.87;67.08;101601.69;6300556;28;20123;-74
2021/10/25 00:55:13;;;;;;;28.38;10.80;;;;;;;4.79;66.86;101604.34;6299519;28;20040;-74
2021/10/25 00:58:14;;;;;;;18.45;9.95;;;;;;;4.81;67.01;101596.59;6300578;28;20475;-75
2021/10/25 01:01:15;;;;;;;17.88;9.82;;;;;;;5.01;65.55;101601.50;6299327;28;20483;-74
2021/10/25 01:04:19;;;;;;;17.10;9.02;;;;;;;4.95;65.73;101612.78;6299383;28;20086;-74
2021/10/25 01:07:21;;;;;;;18.35;10.00;;;;;;;4.71;66.78;101600.16;6299187;28;20075;-74
2021/10/25 01:10:23;;;;;;;18.80;9.77;;;;;;;4.98;65.75;101605.00;6299199;28;20501;-74
2021/10/25 01:13:24;;;;;;;15.98;9.00;;;;;;;4.87;66.25;101606.84;6300139;28;20041;-74
2021/10/25 01:16:26;;;;;;;18.20;9.45;;;;;;;4.90;65.53;101596.50;6300254;28;20041;-74
2021/10/25 01:19:27;;;;;;;19.25;10.07;;;;;;;4.82;67.08;101606.91;6299151;28;20052;-74
2021/10/25 01:22:28;;;;;;;18.73;9.52;;;;;;;4.78;66.88;101591.47;6298952;28;20047;-74
2021/10/25 01:25:31;;;;;;;20.50;9.77;;;;;;;4.83;66.23;101597.41;6282446;28;20037;-74
2021/10/25 01:28:32;;;;;;;22.38;9.20;;;;;;;4.91;65.48;101585.25;6298781;28;20040;-74
2021/10/25 01:31:33;;;;;;;19.15;9.20;;;;;;;4.80;66.21;101587.97;6281830;28;20037;-74
2021/10/25 01:34:34;;;;;;;16.45;8.38;;;;;;;4.60;67.18;101587.38;6282046;28;20047;-74
2021/10/25 01:37:35;;;;;;;17.45;8.68;;;;;;;4.57;67.89;101585.69;6298571;28;20490;-74
2021/10/25 01:40:36;;;;;;;15.27;8.88;;;;;;;4.69;66.86;101584.66;6298240;28;20055;-74
2021/10/25 01:43:37;;;;;;;19.70;8.43;;;;;;;4.80;65.26;101589.72;6299529;28;20055;-74
2021/10/25 01:46:41;;;;;;;20.08;9.25;;;;;;;4.74;65.95;101582.03;6299201;28;20045;-74
2021/10/25 01:49:43;;;;;;;15.65;7.97;;;;;;;4.76;65.85;101582.88;6298321;28;20037;-74
2021/10/25 01:52:44;;;;;;;18.05;8.80;;;;;;;4.66;66.81;101589.88;6281525;28;20072;-74
2021/10/25 01:55:49;;;;;;;18.77;8.38;;;;;;;4.71;65.89;101595.84;6299306;28;20487;-74
2021/10/25 01:58:50;;;;;;;16.42;7.60;;;;;;;4.66;66.01;101594.19;6281773;28;20033;-74
2021/10/25 02:01:51;;;;;;;14.07;7.60;;;;;;;4.61;66.17;101589.94;6297920;28;20052;-75
2021/10/25 02:04:51;;;;;;;15.85;7.93;;;;;;;4.55;66.78;101592.59;6298183;28;20040;-75
2021/10/25 02:07:52;;;;;;;17.38;8.38;;;;;;;4.66;66.36;101586.44;6281264;28;20486;-74
2021/10/25 02:10:53;;;;;;;14.15;7.85;;;;;;;4.74;65.82;101592.38;6264479;28;20041;-75
2021/10/25 02:13:54;;;;;;;20.88;7.93;;;;;;;4.66;66.14;101583.88;6281072;28;20048;-74
2021/10/25 02:16:56;;;;;;;13.43;7.47;;;;;;;4.66;65.83;101584.72;6298900;28;20047;-74
2021/10/25 02:19:56;;;;;;;17.33;7.90;;;;;;;4.58;66.78;101586.53;6298719;28;20052;-74
2021/10/25 02:22:57;;;;;;;14.20;7.70;;;;;;;4.51;66.92;101574.53;6297456;28;20135;-74
2021/10/25 02:25:58;;;;;;;20.42;7.93;;;;;;;4.47;67.25;101584.06;6297430;28;20072;-75
2021/10/25 02:28:59;;;;;;;20.63;7.88;;;;;;;4.54;66.84;101583.13;6297456;28;20044;-75
2021/10/25 02:32:00;;;;;;;15.68;7.63;;;;;;;4.56;66.55;101583.94;6297125;28;20044;-76
2021/10/25 02:35:00;;;;;;;12.05;6.97;;;;;;;4.57;65.93;101590.84;6280595;28;20051;-75
2021/10/25 02:38:01;;;;;;;15.18;7.35;;;;;;;4.49;66.22;101584.03;6280608;28;20510;-75
2021/10/25 02:41:04;;;;;;;16.17;7.60;;;;;;;4.44;66.66;101584.09;6298220;28;20125;-74
2021/10/25 02:44:05;;;;;;;12.52;6.85;;;;;;;4.49;66.41;101572.00;6297001;28;20063;-75
2021/10/25 02:47:06;;;;;;;14.75;7.50;;;;;;;4.47;66.37;101571.16;6297865;28;20459;-74
2021/10/25 02:50:07;;;;;;;12.63;7.10;;;;;;;4.62;65.27;101583.88;6296858;28;20535;-75
2021/10/25 02:53:09;;;;;;;12.13;7.22;;;;;;;4.51;65.82;101580.59;6296502;28;20040;-74
2021/10/25 02:56:10;;;;;;;12.35;6.43;;;;;;;4.53;64.95;101572.78;6298009;28;20247;-74
2021/10/25 02:59:11;;;;;;;13.15;6.15;;;;;;;4.44;65.15;101571.16;6296529;28;20051;-75
2021/10/25 03:02:12;;;;;;;11.45;6.50;;;;;;;4.41;65.55;101568.63;6296558;28;20407;-74
2021/10/25 03:05:12;;;;;;;11.23;6.05;;;;;;;4.40;65.55;101560.00;6296472;28;20040;-75
2021/10/25 03:08:13;;;;;;;11.23;5.75;;;;;;;4.44;65.36;101566.00;6280008;28;20514;-74
2021/10/25 03:11:14;;;;;;;10.35;5.78;;;;;;;4.36;65.77;101572.97;6296832;28;20037;-74
2021/10/25 03:14:15;;;;;;;12.52;6.05;;;;;;;4.29;64.88;101566.19;6297351;28;20380;-74
2021/10/25 03:17:16;;;;;;;10.00;5.95;;;;;;;4.28;65.41;101567.03;6296189;28;20045;-74
2021/10/25 03:20:17;;;;;;;13.48;5.78;;;;;;;4.28;66.43;101565.31;6297235;28;20044;-75
2021/10/25 03:23:18;;;;;;;13.23;6.20;;;;;;;4.33;65.48;101557.53;6279426;28;20055;-74
2021/10/25 03:26:19;;;;;;;17.10;6.10;;;;;;;4.25;66.36;101562.78;6262748;28;20064;-74
2021/10/25 03:29:19;;;;;;;11.48;5.85;;;;;;;4.27;66.70;101565.34;6279523;28;20036;-74
2021/10/25 03:32:21;;;;;;;10.15;5.38;;;;;;;4.28;66.46;101562.72;6295692;28;20395;-74
2021/10/25 03:35:22;;;;;;;11.90;5.90;;;;;;;4.30;66.71;101558.38;6295619;28;20093;-74
2021/10/25 03:38:23;;;;;;;10.18;5.35;;;;;;;4.48;64.95;101567.69;6296918;28;20445;-74
2021/10/25 03:41:32;;;;;;;10.05;5.88;;;;;;;4.30;65.24;101565.28;6279017;28;20071;-73
2021/10/25 03:44:45;;;;;;;10.30;5.43;;;;;;;4.34;65.75;101570.41;6279908;28;20040;-73
2021/10/25 03:47:55;;;;;;;15.95;5.65;;;;;;;4.31;65.00;101570.47;6295227;28;20049;-73
2021/10/25 03:50:56;;;;;;;12.15;5.45;;;;;;;4.29;65.75;101564.44;6296545;28;20036;-74
2021/10/25 04:26:21;;;;;;;14.07;6.35;;;;;;;4.47;64.11;101539.25;6296004;28;20051;-73
2021/10/25 04:29:27;;;;;;;11.52;6.70;;;;;;;4.43;64.77;101541.03;6279385;28;20041;-73
2021/10/25 04:32:28;;;;;;;10.80;6.10;;;;;;;4.51;63.67;101543.50;6278648;28;20041;-73
2021/10/25 04:35:29;;;;;;;9.65;5.75;;;;;;;4.47;63.73;101547.00;6277951;28;20068;-74
2021/10/25 04:38:30;;;;;;;9.90;5.93;;;;;;;4.44;64.09;101540.16;6295942;28;20043;-73
2021/10/25 04:41:30;;;;;;;13.73;7.97;;;;;;;4.38;63.93;101543.66;6277898;28;20049;-73
2021/10/25 04:44:31;;;;;;;14.32;8.23;;;;;;;4.33;63.84;101545.44;6277927;28;20427;-73
2021/10/25 04:47:34;;;;;;;14.48;8.50;;;;;;;4.40;64.15;101546.22;6295476;28;20079;-74
2021/10/25 04:50:35;;;;;;;16.23;8.07;;;;;;;4.42;63.77;101540.16;6278228;28;20128;-74
2021/10/25 04:53:36;;;;;;;11.07;6.80;;;;;;;4.52;63.35;101540.91;6295713;28;20379;-76
2021/10/25 04:56:37;;;;;;;25.45;7.63;;;;;;;4.34;63.97;101544.56;6278155;28;20044;-73
2021/10/25 04:59:37;;;;;;;17.10;6.45;;;;;;;4.56;63.10;101549.50;6294467;28;20483;-73
2021/10/25 05:02:38;;;;;;;14.27;7.75;;;;;;;4.63;62.62;101533.91;6277643;28;20045;-73
2021/10/25 05:05:39;;;;;;;14.77;9.20;;;;;;;4.49;63.61;101545.25;6294246;28;20147;-73
2021/10/25 05:08:40;;;;;;;25.77;10.77;;;;;;;4.39;64.75;101542.78;6277689;28;20395;-73
2021/10/25 05:11:41;;;;;;;20.17;10.70;;;;;;;4.57;63.83;101546.03;6277597;28;20044;-73
2021/10/25 05:14:43;;;;;;;28.75;12.52;;;;;;;4.70;62.86;101547.59;6295365;28;20044;-73
2021/10/25 05:17:43;;;;;;;35.80;13.80;;;;;;;4.70;63.16;101557.94;6294308;28;20061;-73
2021/10/25 05:20:45;;;;;;;30.52;15.02;;;;;;;4.77;62.73;101543.19;6294319;28;20284;-73
2021/10/25 05:23:46;;;;;;;43.03;21.10;;;;;;;4.83;63.61;101543.13;6294314;28;20045;-73
2021/10/25 05:26:47;;;;;;;20.10;10.00;;;;;;;4.96;62.78;101534.31;6295217;28;20045;-73
2021/10/25 05:29:47;;;;;;;20.90;9.63;;;;;;;5.11;62.14;101530.66;6294126;28;20090;-73
2021/10/25 05:32:48;;;;;;;56.95;25.13;;;;;;;5.15;61.92;101528.88;6278243;28;20036;-73
2021/10/25 05:35:49;;;;;;;55.05;25.73;;;;;;;5.25;60.57;101531.31;6265288;28;20402;-73
2021/10/25 05:38:51;;;;;;;39.70;19.15;;;;;;;5.40;60.72;101532.78;6298518;28;20063;-73
2021/10/25 05:41:52;;;;;;;26.30;13.85;;;;;;;5.56;59.45;101532.53;6299631;28;20040;-72
2021/10/25 05:44:52;;;;;;;22.40;11.32;;;;;;;5.60;59.18;101537.66;6265160;28;20047;-73
2021/10/25 05:47:53;;;;;;;15.88;9.15;;;;;;;5.78;58.97;101530.44;6298060;28;20598;-73
2021/10/25 05:50:54;;;;;;;16.63;7.80;;;;;;;5.89;58.34;101531.13;6281525;28;20075;-73
2021/10/25 05:53:57;;;;;;;20.63;10.05;;;;;;;6.05;57.77;101542.94;6273056;28;20470;-73
2021/10/25 05:56:59;;;;;;;76.20;22.55;;;;;;;6.12;57.57;101546.25;6276103;28;20462;-76
2021/10/25 06:00:02;;;;;;;177.98;46.53;;;;;;;6.20;58.17;101551.31;6282238;28;20119;-76
2021/10/25 06:03:02;;;;;;;117.55;34.30;;;;;;;6.37;57.86;101548.38;6297868;28;20044;-76
2021/10/25 06:06:03;;;;;;;72.65;22.33;;;;;;;6.54;57.51;101550.63;6298704;28;20098;-76
2021/10/25 06:09:05;;;;;;;31.05;12.73;;;;;;;6.59;56.91;101546.19;6281780;28;20060;-76
2021/10/25 06:12:13;;;;;;;27.20;13.13;;;;;;;6.90;55.72;101543.81;6281892;28;20037;-76
2021/10/25 06:15:17;;;;;;;29.33;13.50;;;;;;;7.33;55.45;101542.84;6267044;28;20471;-76
2021/10/25 06:18:17;;;;;;;22.42;12.25;;;;;;;7.56;54.58;101544.88;6298198;28;20041;-76
2021/10/25 06:21:18;;;;;;;24.48;12.40;;;;;;;8.27;52.66;101551.69;6298229;28;20047;-76
2021/10/25 06:24:19;;;;;;;16.55;8.95;;;;;;;3.10;75.10;101551.69;6298064;28;20063;-76
2021/10/25 06:27:20;;;;;;;16.25;8.55;;;;;;;2.00;87.41;101542.69;6264699;28;20048;-76
2021/10/25 06:30:21;;;;;;;14.65;7.32;;;;;;;1.78;91.61;101541.84;6299161;28;20041;-76
2021/10/25 06:33:23;;;;;;;16.63;8.10;;;;;;;1.86;93.18;101545.28;6297917;28;20037;-76
2021/10/25 06:36:24;;;;;;;18.60;8.98;;;;;;;1.87;95.57;101540.97;6315001;28;20317;-76
2021/10/25 06:42:34;;;;;;;20.27;9.25;;;;;;;2.16;93.38;101552.09;6298991;28;20174;-77
2021/10/25 06:45:34;;;;;;;18.98;9.63;;;;;;;2.33;94.50;101557.19;6296264;28;20298;-73
2021/10/25 06:48:35;;;;;;;18.05;8.82;;;;;;;2.48;95.26;101550.28;6296350;28;20048;-73
2021/10/25 06:51:37;;;;;;;14.00;7.55;;;;;;;2.64;93.33;101554.50;6296767;28;20532;-73
2021/10/25 06:54:39;;;;;;;11.65;6.97;;;;;;;2.83;92.89;101550.13;6296512;28;20406;-74
2021/10/25 06:57:39;;;;;;;13.65;6.35;;;;;;;2.91;90.47;101542.34;6296398;28;20047;-74
2021/10/25 07:00:41;;;;;;;12.68;5.90;;;;;;;3.14;91.56;101550.78;6279827;28;20068;-74
2021/10/25 07:03:41;;;;;;;15.60;7.30;;;;;;;3.31;90.37;101550.69;6279589;28;20446;-73
2021/10/25 07:06:42;;;;;;;13.48;6.63;;;;;;;3.49;87.81;101548.84;6297314;28;20052;-73
2021/10/25 07:09:43;;;;;;;15.15;6.43;;;;;;;3.69;86.84;101544.38;6297352;28;20402;-74
2021/10/25 07:12:45;;;;;;;15.05;7.78;;;;;;;3.82;85.91;101538.22;6279444;28;20076;-74
2021/10/25 07:16:15;;;;;;;15.10;6.45;;;;;;;4.14;84.94;101544.81;6297171;28;20043;-74
2021/10/25 08:08:55;;;;;;;7.93;4.88;;;;;;;7.95;65.89;101539.56;6295866;28;20041;-77
2021/10/25 08:12:02;;;;;;;10.70;4.63;;;;;;;8.18;63.40;101536.34;6282155;28;20063;-77
2021/10/25 08:15:07;;;;;;;9.40;4.72;;;;;;;8.41;63.16;101537.47;6264304;28;20143;-77
2021/10/25 08:18:56;;;;;;;11.68;4.85;;;;;;;8.62;60.98;101542.06;6295536;28;20045;-77
2021/10/25 08:21:39;;;;;;;8.02;4.90;;;;;;;8.82;60.63;101536.25;6295884;28;20128;-77
2021/10/25 08:24:51;;;;;;;11.05;4.88;;;;;;;9.01;59.13;101540.91;6278844;28;20044;-77
2021/10/25 08:27:52;;;;;;;11.85;5.65;;;;;;;9.15;58.64;101546.56;6296723;28;20041;-77
2021/10/25 08:30:53;;;;;;;7.88;5.00;;;;;;;9.32;56.53;101540.78;6295411;28;20040;-77
2021/10/25 08:34:15;;;;;;;10.52;5.13;;;;;;;9.59;55.71;101535.59;6278846;28;20524;-77
2021/10/25 08:40:31;;;;;;;;;;;;;;;10.04;54.89;101548.81;6297072;28;20040;-77
2021/10/25 08:43:37;;;;;;;9.18;4.72;;;;;;;10.16;54.16;101538.88;6295461;28;20300;-77
2021/10/25 08:46:38;;;;;;;6.63;3.97;;;;;;;10.21;52.46;101537.81;6295239;28;20459;-77
2021/10/25 08:49:38;;;;;;;7.53;4.22;;;;;;;10.47;52.75;101538.63;6296527;28;20055;-77
2021/10/25 08:52:40;;;;;;;11.70;4.25;;;;;;;10.56;51.52;101540.03;6295381;28;20115;-77
2021/10/25 08:55:41;;;;;;;7.07;3.92;;;;;;;10.76;51.79;101542.75;6278629;28;20044;-77
2021/10/25 08:58:45;;;;;;;7.55;3.67;;;;;;;10.97;51.53;101542.84;6295257;28;20056;-77
2021/10/25 09:01:46;;;;;;;10.52;3.42;;;;;;;11.05;49.83;101544.22;6296411;28;20049;-77
2021/10/25 09:05:16;;;;;;;6.60;3.58;;;;;;;11.20;49.60;101555.00;6296307;28;20049;-77
2021/10/25 09:08:17;;;;;;;8.55;3.20;;;;;;;11.32;48.79;101549.28;6288355;28;20174;-77
2021/10/25 09:11:18;;;;;;;7.70;3.60;;;;;;;11.45;48.64;101547.88;6283444;28;20501;-77
2021/10/25 09:14:20;;;;;;;8.55;3.38;;;;;;;11.57;47.44;101549.16;6301042;28;20261;-77
2021/10/25 09:17:21;;;;;;;8.15;3.60;;;;;;;11.72;48.72;101549.44;6283055;28;20072;-77
2021/10/25 09:20:22;;;;;;;5.80;2.85;;;;;;;11.91;46.29;101546.91;6299971;28;20489;-77
2021/10/25 09:23:27;;;;;;;7.97;3.17;;;;;;;11.90;44.87;101538.19;6301042;28;20040;-77
2021/10/25 09:26:31;;;;;;;8.73;3.55;;;;;;;12.02;47.71;101535.03;6299749;28;20086;-77
2021/10/25 09:29:39;;;;;;;7.60;2.90;;;;;;;12.01;43.26;101529.91;6299611;28;20040;-77
2021/10/25 09:32:42;;;;;;;5.72;3.40;;;;;;;12.16;46.79;101537.06;6301096;28;20402;-79
2021/10/25 09:35:47;;;;;;;5.32;3.15;;;;;;;12.39;45.46;101525.56;6300659;28;20045;-78
2021/10/25 09:51:54;;;;;;;7.18;3.03;;;;;;;12.75;43.72;101508.25;6300222;28;20041;-78
2021/10/25 09:55:00;;;;;;;5.70;3.22;;;;;;;12.75;44.64;101509.09;6300350;28;20407;-78
2021/10/25 09:58:05;;;;;;;7.18;2.63;;;;;;;12.49;44.24;101499.81;6299973;28;20037;-78
2021/10/25 10:01:06;;;;;;;5.03;2.50;;;;;;;12.70;43.56;101492.72;6282712;28;20453;-78
2021/10/25 10:04:08;;;;;;;4.87;2.83;;;;;;;12.95;43.10;101494.19;6298915;28;20060;-78
2021/10/25 10:07:16;;;;;;;;;;;;;;;13.20;42.44;101493.84;6299003;28;20281;-78
2021/10/25 10:10:21;;;;;;;6.55;2.78;;;;;;;13.38;41.53;101487.72;6299756;28;19920;-78
2021/10/25 10:13:23;;;;;;;5.45;2.92;;;;;;;13.52;41.20;101494.06;6299656;28;20430;-78
2021/10/25 10:16:24;;;;;;;5.28;2.85;;;;;;;13.64;40.63;101485.56;6299904;28;20440;-78
2021/10/25 10:19:26;;;;;;;6.55;2.97;;;;;;;13.66;41.52;101481.09;6281740;28;20123;-78
2021/10/25 10:22:28;;;;;;;5.65;2.67;;;;;;;13.87;39.59;101477.34;6299587;28;20128;-78
2021/10/25 10:25:35;;;;;;;4.85;2.72;;;;;;;13.90;40.54;101471.13;6299477;28;20486;-78
2021/10/25 10:28:50;;;;;;;5.35;2.83;;;;;;;14.13;40.77;101472.53;6315384;28;20079;-78
2021/10/25 10:31:59;;;;;;;7.75;2.65;;;;;;;14.25;39.55;101476.28;6299277;28;20048;-78
2021/10/25 10:35:08;;;;;;;8.43;3.17;;;;;;;13.79;39.06;101468.19;6298370;28;20040;-77
2021/10/25 10:38:09;;;;;;;6.90;3.78;;;;;;;14.09;39.39;101465.75;6298094;28;20040;-77
2021/10/25 10:41:10;;;;;;;6.07;2.80;;;;;;;14.16;38.05;101469.72;6299130;28;20036;-77
2021/10/25 10:44:13;;;;;;;6.43;2.90;;;;;;;14.21;38.58;101464.25;6297850;28;20055;-77
2021/10/25 10:47:18;;;;;;;6.03;2.65;;;;;;;14.08;37.38;101459.66;6298826;28;20207;-77
2021/10/25 10:50:29;;;;;;;10.25;2.78;;;;;;;14.38;38.57;101464.16;6297652;28;20040;-77
2021/10/25 10:53:33;;;;;;;4.60;2.47;;;;;;;14.51;38.84;101454.66;6297470;28;20120;-77
2021/10/25 10:56:41;;;;;;;6.95;2.75;;;;;;;14.54;37.61;101450.16;6297504;28;20506;-77
2021/10/25 10:59:50;;;;;;;7.63;2.90;;;;;;;14.67;37.77;101451.22;6298623;28;20044;-79
2021/10/25 11:03:00;;;;;;;5.45;2.90;;;;;;;14.47;36.62;101442.63;6297558;28;20040;-78
2021/10/25 11:06:03;;;;;;;5.10;2.75;;;;;;;14.61;38.49;101428.78;6297404;28;20045;-77
2021/10/25 11:09:12;;;;;;;4.60;2.40;;;;;;;14.71;36.82;101423.84;6297322;28;20483;-78
2021/10/25 11:12:20;;;;;;;3.65;2.05;;;;;;;14.78;37.15;101422.56;6298267;28;20046;-78
2021/10/25 11:15:21;;;;;;;4.55;2.10;;;;;;;14.86;35.26;101425.59;6297223;28;20041;-78
2021/10/25 11:18:27;;;;;;;4.90;2.03;;;;;;;14.82;37.35;101423.25;6296931;28;20399;-78
2021/10/25 11:21:30;;;;;;;8.23;2.03;;;;;;;14.86;35.54;101414.25;6296748;28;20050;-78
2021/10/25 11:24:31;;;;;;;4.30;2.20;;;;;;;14.82;35.70;101408.31;6297935;28;20044;-78
2021/10/25 11:27:35;;;;;;;4.95;2.30;;;;;;;15.00;35.49;101408.19;6296820;28;20087;-78
2021/10/25 11:30:36;;;;;;;3.45;2.10;;;;;;;14.98;34.88;101403.03;6297368;28;20033;-78
2021/10/25 11:33:45;;;;;;;7.65;2.50;;;;;;;15.17;36.55;101391.44;6296544;28;20055;-78
2021/10/25 11:37:05;;;;;;;6.35;2.10;;;;;;;15.19;35.77;101392.19;6297777;28;20407;-78
2021/10/25 11:40:08;;;;;;;5.65;2.40;;;;;;;15.20;34.21;101389.47;6297697;28;20053;-78
2021/10/25 11:43:09;;;;;;;3.47;2.13;;;;;;;15.22;34.65;101387.59;6297547;28;20514;-78
2021/10/25 11:46:21;;;;;;;6.63;2.00;;;;;;;15.37;34.20;101382.38;6297603;28;20040;-78
2021/10/25 11:49:23;;;;;;;5.57;2.55;;;;;;;15.38;34.30;101376.16;6296083;28;20061;-78
2021/10/25 11:52:24;;;;;;;5.20;2.33;;;;;;;15.15;33.77;101377.53;6297307;28;20398;-78
2021/10/25 11:55:28;;;;;;;4.63;2.58;;;;;;;14.84;33.33;101374.91;6279513;28;20076;-78
2021/10/25 11:58:29;;;;;;;4.30;1.80;;;;;;;15.10;34.95;101378.66;6297155;28;20037;-78
2021/10/25 12:01:30;;;;;;;4.60;2.10;;;;;;;15.25;34.87;101370.78;6297212;28;20102;-78
2021/10/25 12:04:30;;;;;;;5.60;2.10;;;;;;;15.36;34.37;101368.38;6296169;28;20045;-78
2021/10/25 12:07:32;;;;;;;4.63;2.20;;;;;;;15.38;35.13;101358.63;6295976;28;20072;-79
2021/10/25 12:10:33;;;;;;;3.97;2.27;;;;;;;15.47;34.82;101359.84;6296013;28;20033;-77
2021/10/25 12:13:34;;;;;;;4.30;2.17;;;;;;;15.05;33.09;101348.31;6297019;28;20398;-77
2021/10/25 12:16:37;;;;;;;9.23;2.60;;;;;;;14.82;33.14;101339.16;6297040;28;20048;-77
2021/10/25 12:19:42;;;;;;;5.72;2.17;;;;;;;14.58;33.20;101334.41;6295853;28;20063;-77
2021/10/25 12:22:43;;;;;;;4.15;2.25;;;;;;;14.68;35.86;101337.31;6295892;28;20370;-77
2021/10/25 12:25:53;;;;;;;3.70;2.00;;;;;;;14.69;34.38;101329.34;6296923;28;20045;-77
2021/10/25 12:28:55;;;;;;;4.03;1.90;;;;;;;14.95;34.80;101327.00;6296748;28;20040;-77
2021/10/25 12:32:06;;;;;;;;;;;;;;;15.14;33.82;101313.59;6296067;28;20238;-77
2021/10/25 12:35:07;;;;;;;6.93;2.20;;;;;;;15.28;34.97;101304.91;6296848;28;19936;-77
2021/10/25 12:38:20;;;;;;;9.30;3.20;;;;;;;15.33;34.58;101310.69;6296736;28;20041;-77
2021/10/25 12:41:22;;;;;;;8.13;2.58;;;;;;;15.31;33.42;101315.22;6295629;28;20044;-77
2021/10/25 12:44:36;;;;;;;5.27;2.30;;;;;;;15.31;34.51;101302.91;6299279;28;20093;-77
2021/10/25 12:47:37;;;;;;;5.20;2.13;;;;;;;15.22;35.21;101300.00;6301651;28;20514;-78
2021/10/25 12:50:41;;;;;;;6.95;2.20;;;;;;;15.16;34.99;101303.84;6300616;28;20158;-77
2021/10/25 12:53:44;;;;;;;5.97;2.15;;;;;;;15.23;32.93;101304.31;6300390;28;20040;-77
2021/10/25 12:56:45;;;;;;;8.10;2.63;;;;;;;15.19;33.01;101303.63;6301635;28;20052;-77
2021/10/25 13:00:14;;;;;;;9.50;3.00;;;;;;;15.03;33.52;101293.22;6300337;28;20045;-77
2021/10/25 13:03:15;;;;;;;5.88;2.30;;;;;;;14.75;32.78;101282.66;6299584;28;20062;-77
2021/10/25 13:06:15;;;;;;;11.38;3.15;;;;;;;14.53;33.54;101278.63;6283613;28;20399;-77
2021/10/25 13:09:16;;;;;;;8.02;3.33;;;;;;;14.17;32.89;101274.56;6301201;28;20114;-77
2021/10/25 13:12:18;;;;;;;12.13;3.58;;;;;;;14.11;34.57;101275.75;6299862;28;20040;-77
2021/10/25 13:15:23;;;;;;;10.95;3.33;;;;;;;14.19;35.02;101263.97;6283069;28;20510;-77
2021/10/25 13:18:24;;;;;;;3.53;2.10;;;;;;;14.36;34.42;101260.38;6299819;28;20068;-76
2021/10/25 13:21:25;;;;;;;6.05;1.95;;;;;;;14.47;34.58;101264.06;6300868;28;20411;-77
2021/10/25 13:24:26;;;;;;;11.07;2.72;;;;;;;14.49;35.21;101254.31;6299577;28;20037;-77
2021/10/25 13:27:26;;;;;;;4.30;2.33;;;;;;;14.41;34.63;101253.94;6300826;28;20478;-78
2021/10/25 13:30:28;;;;;;;6.30;2.63;;;;;;;14.37;34.68;101248.94;6282686;28;20147;-77
2021/10/25 13:33:34;;;;;;;16.48;4.18;;;;;;;14.36;34.13;101249.88;6300720;28;20036;-78
2021/10/25 13:36:35;;;;;;;8.30;2.75;;;;;;;14.25;34.57;101250.50;6283686;28;20044;-78
2021/10/25 13:39:36;;;;;;;11.13;3.97;;;;;;;14.20;35.22;101249.91;6299198;28;20043;-77
2021/10/25 13:42:37;;;;;;;4.20;2.53;;;;;;;14.29;34.79;101246.78;6282713;28;20045;-77
2021/10/25 13:45:37;;;;;;;6.13;2.80;;;;;;;14.27;34.96;101251.25;6299156;28;20037;-78
2021/10/25 13:48:38;;;;;;;5.07;2.50;;;;;;;14.14;35.84;101255.50;6299995;28;20052;-77
2021/10/25 13:51:39;;;;;;;11.07;2.80;;;;;;;14.09;35.18;101242.66;6300060;28;20155;-77
2021/10/25 13:54:40;;;;;;;7.15;2.55;;;;;;;13.99;36.02;101233.63;6281838;28;20040;-78
2021/10/25 13:57:42;;;;;;;3.72;2.08;;;;;;;13.69;34.62;101232.63;6300163;28;20144;-78
2021/10/25 14:00:43;;;;;;;4.55;2.70;;;;;;;13.58;37.85;101231.50;6298901;28;20119;-78
2021/10/25 14:03:45;;;;;;;5.10;2.10;;;;;;;13.44;37.34;101222.59;6299885;28;20402;-78
2021/10/25 14:06:46;;;;;;;5.60;2.35;;;;;;;13.34;38.68;101226.66;6298848;28;20541;-78
2021/10/25 14:09:53;;;;;;;7.82;2.20;;;;;;;13.45;38.54;101220.84;6282014;28;20043;-78
2021/10/25 14:12:58;;;;;;;4.90;2.67;;;;;;;13.41;39.53;101217.56;6282700;28;20064;-78
2021/10/25 14:19:20;;;;;;;4.65;2.42;;;;;;;13.35;38.67;101212.63;6298353;28;20040;-78
2021/10/25 14:22:21;;;;;;;4.05;2.10;;;;;;;13.30;38.46;101207.66;6298314;28;20045;-78
2021/10/25 14:25:22;;;;;;;4.75;2.35;;;;;;;13.20;38.73;101216.91;6281651;28;20272;-78
2021/10/25 14:28:25;;;;;;;4.68;2.50;;;;;;;13.12;37.35;101203.38;6281645;28;20094;-77
2021/10/25 14:31:26;;;;;;;5.22;2.25;;;;;;;13.16;37.86;101206.66;6298133;28;20041;-77
2021/10/25 14:34:27;;;;;;;8.80;2.60;;;;;;;12.96;38.88;101199.88;6281439;28;20415;-78
2021/10/25 14:37:31;;;;;;;5.22;2.50;;;;;;;12.89;41.63;101196.72;6281948;28;20041;-78
2021/10/25 14:40:52;;;;;;;11.57;2.70;;;;;;;12.78;39.86;101191.19;6299154;28;20044;-78
2021/10/25 14:44:04;;;;;;;5.75;2.58;;;;;;;12.68;39.71;101198.66;6284274;28;20514;-77
2021/10/25 14:53:40;;;;;;;10.27;5.03;;;;;;;12.26;43.14;101181.63;6298699;28;20039;-77
2021/10/25 14:56:41;;;;;;;10.85;4.38;;;;;;;12.12;44.46;101179.69;6282214;28;20050;-77
2021/10/25 14:59:41;;;;;;;12.63;7.20;;;;;;;11.94;49.03;101181.41;6298790;28;20225;-78
2021/10/25 15:02:43;;;;;;;11.38;4.63;;;;;;;11.78;50.98;101173.47;6298435;28;20399;-77
2021/10/25 15:05:43;;;;;;;6.57;3.93;;;;;;;11.65;51.32;101174.94;6296466;28;20101;-78
2021/10/25 15:08:44;;;;;;;9.13;4.15;;;;;;;11.53;51.64;101168.56;6297047;28;20041;-78
2021/10/25 15:11:45;;;;;;;6.57;3.30;;;;;;;11.40;50.50;101170.03;6297200;28;20040;-78
2021/10/25 15:14:46;;;;;;;13.35;3.70;;;;;;;11.22;53.71;101164.75;6296693;28;20036;-74
2021/10/25 15:17:48;;;;;;;8.88;3.42;;;;;;;11.11;53.13;101163.56;6279431;28;20047;-74
2021/10/25 15:20:50;;;;;;;7.28;4.05;;;;;;;10.94;54.45;101169.53;6297167;28;20048;-74
2021/10/25 15:23:50;;;;;;;8.27;4.60;;;;;;;10.87;54.24;101159.38;6295940;28;20044;-74
2021/10/25 15:26:54;;;;;;;10.38;5.13;;;;;;;10.79;54.44;101160.59;6279379;28;20071;-74
2021/10/25 15:29:57;;;;;;;13.90;6.30;;;;;;;10.63;55.11;101150.84;6295787;28;20045;-74
2021/10/25 15:32:58;;;;;;;22.10;7.10;;;;;;;10.40;55.78;101153.63;6295571;28;20041;-75
2021/10/25 15:35:59;;;;;;;15.98;6.15;;;;;;;10.26;57.49;101151.56;6279107;28;20040;-74
2021/10/25 15:39:01;;;;;;;14.63;6.47;;;;;;;10.15;58.34;101141.59;6295524;28;20047;-74
2021/10/25 15:42:03;;;;;;;14.82;6.22;;;;;;;10.01;59.67;101142.16;6295457;28;20044;-74
2021/10/25 15:45:06;;;;;;;19.63;7.25;;;;;;;9.83;60.85;101138.53;6296865;28;20040;-74
2021/10/25 15:48:07;;;;;;;15.25;6.30;;;;;;;9.67;62.56;101140.06;6329093;28;20060;-75
2021/10/25 15:51:09;;;;;;;27.42;12.85;;;;;;;9.54;62.10;101137.09;6295078;28;20047;-75
2021/10/25 15:54:10;;;;;;;29.88;13.85;;;;;;;9.44;62.37;101130.53;6262280;28;20483;-75
2021/10/25 15:57:13;;;;;;;22.47;10.03;;;;;;;9.41;62.50;101136.72;6295194;28;20355;-75
2021/10/25 16:00:15;;;;;;;22.40;11.15;;;;;;;9.36;62.04;101137.81;6295250;28;20284;-74